sensor_id;sensor_type;location;lat;lon;timestamp;P1;durP1;ratioP1;P2;durP2;ratioP2
15536;SDS011;7870;52.448;13.270;2023-07-09T00:01:39;8.65;;;3.80;;
15536;SDS011;7870;52.448;13.270;2023-07-09T00:04:07;4.65;;;3.17;;
15536;SDS011;7870;52.448;13.270;2023-07-09T00:06:34;6.88;;;3.97;;
15536;SDS011;7870;52.448;13.270;2023-07-09T00:09:00;7.47;;;3.90;;
15536;SDS011;7870;52.448;13.270;2023-07-09T00:11:27;6.05;;;3.03;;
15536;SDS011;7870;52.448;13.270;2023-07-09T00:13:53;5.22;;;3.10;;
15536;SDS011;7870;52.448;13.270;2023-07-09T00:16:21;5.47;;;3.50;;
15536;SDS011;7870;52.448;13.270;2023-07-09T00:18:49;8.23;;;3.95;;
15536;SDS011;7870;52.448;13.270;2023-07-09T00:21:19;7.78;;;3.90;;
15536;SDS011;7870;52.448;13.270;2023-07-09T00:23:50;11.02;;;4.97;;
15536;SDS011;7870;52.448;13.270;2023-07-09T00:26:17;8.82;;;3.55;;
15536;SDS011;7870;52.448;13.270;2023-07-09T00:28:44;5.65;;;3.80;;
15536;SDS011;7870;52.448;13.270;2023-07-09T00:31:11;7.40;;;4.00;;
15536;SDS011;7870;52.448;13.270;2023-07-09T00:33:40;6.90;;;3.60;;
15536;SDS011;7870;52.448;13.270;2023-07-09T00:36:13;9.48;;;4.22;;
15536;SDS011;7870;52.448;13.270;2023-07-09T00:38:41;6.82;;;4.03;;
15536;SDS011;7870;52.448;13.270;2023-07-09T00:41:15;5.80;;;4.00;;
15536;SDS011;7870;52.448;13.270;2023-07-09T00:43:44;9.30;;;4.40;;
15536;SDS011;7870;52.448;13.270;2023-07-09T00:46:14;6.32;;;3.92;;
15536;SDS011;7870;52.448;13.270;2023-07-09T00:48:42;5.85;;;3.95;;
15536;SDS011;7870;52.448;13.270;2023-07-09T00:51:10;5.22;;;4.05;;
15536;SDS011;7870;52.448;13.270;2023-07-09T00:53:38;7.43;;;4.00;;
15536;SDS011;7870;52.448;13.270;2023-07-09T00:56:24;5.78;;;4.35;;
15536;SDS011;7870;52.448;13.270;2023-07-09T00:58:52;5.97;;;3.95;;
15536;SDS011;7870;52.448;13.270;2023-07-09T01:01:21;6.03;;;4.13;;
15536;SDS011;7870;52.448;13.270;2023-07-09T01:03:48;7.32;;;4.32;;
15536;SDS011;7870;52.448;13.270;2023-07-09T01:06:17;6.65;;;4.10;;
15536;SDS011;7870;52.448;13.270;2023-07-09T01:08:46;6.27;;;4.50;;
15536;SDS011;7870;52.448;13.270;2023-07-09T01:11:21;5.50;;;3.55;;
15536;SDS011;7870;52.448;13.270;2023-07-09T01:13:48;7.07;;;4.22;;
15536;SDS011;7870;52.448;13.270;2023-07-09T01:16:17;5.15;;;4.05;;
15536;SDS011;7870;52.448;13.270;2023-07-09T01:18:44;7.55;;;4.22;;
15536;SDS011;7870;52.448;13.270;2023-07-09T01:21:10;5.55;;;4.28;;
15536;SDS011;7870;52.448;13.270;2023-07-09T01:23:45;5.75;;;4.05;;
15536;SDS011;7870;52.448;13.270;2023-07-09T01:26:13;6.50;;;4.45;;
15536;SDS011;7870;52.448;13.270;2023-07-09T01:28:40;6.25;;;4.05;;
15536;SDS011;7870;52.448;13.270;2023-07-09T01:31:10;5.90;;;3.80;;
15536;SDS011;7870;52.448;13.270;2023-07-09T01:33:38;7.05;;;4.05;;
15536;SDS011;7870;52.448;13.270;2023-07-09T01:36:06;7.88;;;4.20;;
15536;SDS011;7870;52.448;13.270;2023-07-09T01:38:33;5.95;;;3.75;;
15536;SDS011;7870;52.448;13.270;2023-07-09T01:41:00;6.07;;;4.13;;
15536;SDS011;7870;52.448;13.270;2023-07-09T01:43:27;8.15;;;3.90;;
15536;SDS011;7870;52.448;13.270;2023-07-09T01:45:53;6.22;;;3.92;;
15536;SDS011;7870;52.448;13.270;2023-07-09T01:48:25;6.65;;;4.10;;
15536;SDS011;7870;52.448;13.270;2023-07-09T01:50:53;6.03;;;3.80;;
15536;SDS011;7870;52.448;13.270;2023-07-09T01:53:21;6.55;;;4.13;;
15536;SDS011;7870;52.448;13.270;2023-07-09T01:55:50;6.85;;;4.43;;
15536;SDS011;7870;52.448;13.270;2023-07-09T01:58:17;8.45;;;4.30;;
15536;SDS011;7870;52.448;13.270;2023-07-09T02:00:43;5.40;;;4.22;;
15536;SDS011;7870;52.448;13.270;2023-07-09T02:03:11;6.65;;;4.35;;
15536;SDS011;7870;52.448;13.270;2023-07-09T02:05:37;6.55;;;4.00;;
15536;SDS011;7870;52.448;13.270;2023-07-09T02:08:04;6.57;;;4.38;;
15536;SDS011;7870;52.448;13.270;2023-07-09T02:10:30;5.85;;;3.90;;
15536;SDS011;7870;52.448;13.270;2023-07-09T02:12:58;6.72;;;4.10;;
15536;SDS011;7870;52.448;13.270;2023-07-09T02:15:24;5.63;;;3.70;;
15536;SDS011;7870;52.448;13.270;2023-07-09T02:17:51;4.53;;;3.47;;
15536;SDS011;7870;52.448;13.270;2023-07-09T02:20:18;5.45;;;3.95;;
15536;SDS011;7870;52.448;13.270;2023-07-09T02:22:45;6.18;;;4.00;;
15536;SDS011;7870;52.448;13.270;2023-07-09T02:25:11;6.55;;;3.65;;
15536;SDS011;7870;52.448;13.270;2023-07-09T02:27:38;5.35;;;4.00;;
15536;SDS011;7870;52.448;13.270;2023-07-09T02:30:05;5.63;;;3.83;;
15536;SDS011;7870;52.448;13.270;2023-07-09T02:32:32;5.57;;;4.00;;
15536;SDS011;7870;52.448;13.270;2023-07-09T02:34:59;5.50;;;4.07;;
15536;SDS011;7870;52.448;13.270;2023-07-09T02:37:26;7.45;;;4.03;;
15536;SDS011;7870;52.448;13.270;2023-07-09T02:39:52;6.63;;;4.00;;
15536;SDS011;7870;52.448;13.270;2023-07-09T02:42:20;6.95;;;4.03;;
15536;SDS011;7870;52.448;13.270;2023-07-09T02:44:48;8.05;;;3.78;;
15536;SDS011;7870;52.448;13.270;2023-07-09T02:47:15;5.72;;;3.33;;
15536;SDS011;7870;52.448;13.270;2023-07-09T02:49:42;5.53;;;4.85;;
15536;SDS011;7870;52.448;13.270;2023-07-09T02:52:08;7.13;;;3.97;;
15536;SDS011;7870;52.448;13.270;2023-07-09T02:54:35;5.47;;;3.95;;
15536;SDS011;7870;52.448;13.270;2023-07-09T02:57:02;6.20;;;4.20;;
15536;SDS011;7870;52.448;13.270;2023-07-09T02:59:28;8.52;;;4.57;;
15536;SDS011;7870;52.448;13.270;2023-07-09T03:01:56;6.07;;;4.22;;
15536;SDS011;7870;52.448;13.270;2023-07-09T03:04:22;6.60;;;4.68;;
15536;SDS011;7870;52.448;13.270;2023-07-09T03:06:49;6.13;;;3.97;;
15536;SDS011;7870;52.448;13.270;2023-07-09T03:09:15;7.30;;;4.13;;
15536;SDS011;7870;52.448;13.270;2023-07-09T03:11:42;6.72;;;4.32;;
15536;SDS011;7870;52.448;13.270;2023-07-09T03:14:08;6.45;;;4.20;;
15536;SDS011;7870;52.448;13.270;2023-07-09T03:16:35;5.28;;;4.30;;
15536;SDS011;7870;52.448;13.270;2023-07-09T03:19:02;4.72;;;3.90;;
15536;SDS011;7870;52.448;13.270;2023-07-09T03:21:30;6.63;;;4.43;;
15536;SDS011;7870;52.448;13.270;2023-07-09T03:23:56;6.60;;;4.50;;
15536;SDS011;7870;52.448;13.270;2023-07-09T03:26:23;8.52;;;4.25;;
15536;SDS011;7870;52.448;13.270;2023-07-09T03:28:51;5.72;;;4.25;;
15536;SDS011;7870;52.448;13.270;2023-07-09T03:31:18;6.75;;;3.90;;
15536;SDS011;7870;52.448;13.270;2023-07-09T03:33:48;5.05;;;3.90;;
15536;SDS011;7870;52.448;13.270;2023-07-09T03:36:15;8.07;;;4.13;;
15536;SDS011;7870;52.448;13.270;2023-07-09T03:38:42;8.68;;;4.32;;
15536;SDS011;7870;52.448;13.270;2023-07-09T03:41:09;5.70;;;4.50;;
15536;SDS011;7870;52.448;13.270;2023-07-09T03:43:35;5.70;;;4.10;;
15536;SDS011;7870;52.448;13.270;2023-07-09T03:46:02;6.25;;;4.38;;
15536;SDS011;7870;52.448;13.270;2023-07-09T03:48:29;6.40;;;4.15;;
15536;SDS011;7870;52.448;13.270;2023-07-09T03:50:55;6.93;;;3.97;;
15536;SDS011;7870;52.448;13.270;2023-07-09T03:53:22;5.47;;;4.28;;
15536;SDS011;7870;52.448;13.270;2023-07-09T03:55:51;8.85;;;3.92;;
15536;SDS011;7870;52.448;13.270;2023-07-09T03:58:18;5.30;;;4.38;;
15536;SDS011;7870;52.448;13.270;2023-07-09T04:00:45;8.48;;;4.15;;
15536;SDS011;7870;52.448;13.270;2023-07-09T04:03:11;7.88;;;4.10;;
15536;SDS011;7870;52.448;13.270;2023-07-09T04:05:37;5.25;;;3.70;;
15536;SDS011;7870;52.448;13.270;2023-07-09T04:08:04;9.82;;;4.82;;
15536;SDS011;7870;52.448;13.270;2023-07-09T04:10:31;5.80;;;3.92;;
15536;SDS011;7870;52.448;13.270;2023-07-09T04:12:57;5.35;;;4.22;;
15536;SDS011;7870;52.448;13.270;2023-07-09T04:15:25;6.85;;;4.18;;
15536;SDS011;7870;52.448;13.270;2023-07-09T04:17:51;7.65;;;4.75;;
15536;SDS011;7870;52.448;13.270;2023-07-09T04:20:18;5.18;;;4.18;;
15536;SDS011;7870;52.448;13.270;2023-07-09T04:22:45;6.35;;;4.40;;
15536;SDS011;7870;52.448;13.270;2023-07-09T04:25:11;7.70;;;4.40;;
15536;SDS011;7870;52.448;13.270;2023-07-09T04:27:38;7.57;;;4.25;;
15536;SDS011;7870;52.448;13.270;2023-07-09T04:30:07;5.82;;;4.60;;
15536;SDS011;7870;52.448;13.270;2023-07-09T04:32:34;10.88;;;4.40;;
15536;SDS011;7870;52.448;13.270;2023-07-09T04:35:02;7.75;;;5.03;;
15536;SDS011;7870;52.448;13.270;2023-07-09T04:37:31;7.40;;;4.55;;
15536;SDS011;7870;52.448;13.270;2023-07-09T04:39:58;8.32;;;5.50;;
15536;SDS011;7870;52.448;13.270;2023-07-09T04:42:24;6.55;;;4.75;;
15536;SDS011;7870;52.448;13.270;2023-07-09T04:44:51;10.35;;;4.70;;
15536;SDS011;7870;52.448;13.270;2023-07-09T04:47:17;8.75;;;4.25;;
15536;SDS011;7870;52.448;13.270;2023-07-09T04:49:44;6.30;;;4.32;;
15536;SDS011;7870;52.448;13.270;2023-07-09T04:52:10;6.93;;;4.03;;
15536;SDS011;7870;52.448;13.270;2023-07-09T04:54:41;6.38;;;4.28;;
15536;SDS011;7870;52.448;13.270;2023-07-09T04:57:11;7.00;;;4.40;;
15536;SDS011;7870;52.448;13.270;2023-07-09T04:59:38;8.43;;;5.50;;
15536;SDS011;7870;52.448;13.270;2023-07-09T05:02:04;6.57;;;4.18;;
15536;SDS011;7870;52.448;13.270;2023-07-09T05:04:31;6.80;;;4.10;;
15536;SDS011;7870;52.448;13.270;2023-07-09T05:06:57;5.85;;;4.05;;
15536;SDS011;7870;52.448;13.270;2023-07-09T05:09:24;7.00;;;4.40;;
15536;SDS011;7870;52.448;13.270;2023-07-09T05:11:50;5.57;;;4.20;;
15536;SDS011;7870;52.448;13.270;2023-07-09T05:14:17;5.57;;;4.13;;
15536;SDS011;7870;52.448;13.270;2023-07-09T05:16:44;7.28;;;4.45;;
15536;SDS011;7870;52.448;13.270;2023-07-09T05:19:11;7.22;;;5.00;;
15536;SDS011;7870;52.448;13.270;2023-07-09T05:21:38;5.68;;;3.90;;
15536;SDS011;7870;52.448;13.270;2023-07-09T05:24:04;7.00;;;3.88;;
15536;SDS011;7870;52.448;13.270;2023-07-09T05:26:31;6.80;;;4.20;;
15536;SDS011;7870;52.448;13.270;2023-07-09T05:28:57;7.25;;;4.50;;
15536;SDS011;7870;52.448;13.270;2023-07-09T05:31:25;7.75;;;4.45;;
15536;SDS011;7870;52.448;13.270;2023-07-09T05:33:52;8.52;;;4.07;;
15536;SDS011;7870;52.448;13.270;2023-07-09T05:36:19;7.10;;;4.00;;
15536;SDS011;7870;52.448;13.270;2023-07-09T05:38:46;6.70;;;4.05;;
15536;SDS011;7870;52.448;13.270;2023-07-09T05:41:13;6.80;;;4.18;;
15536;SDS011;7870;52.448;13.270;2023-07-09T05:43:43;6.53;;;3.88;;
15536;SDS011;7870;52.448;13.270;2023-07-09T05:46:11;6.10;;;3.53;;
15536;SDS011;7870;52.448;13.270;2023-07-09T05:48:38;7.53;;;4.55;;
15536;SDS011;7870;52.448;13.270;2023-07-09T05:51:05;7.00;;;4.35;;
15536;SDS011;7870;52.448;13.270;2023-07-09T05:53:31;5.18;;;3.78;;
15536;SDS011;7870;52.448;13.270;2023-07-09T05:55:59;5.13;;;3.60;;
15536;SDS011;7870;52.448;13.270;2023-07-09T05:58:26;7.88;;;3.78;;
15536;SDS011;7870;52.448;13.270;2023-07-09T06:00:53;5.45;;;4.03;;
15536;SDS011;7870;52.448;13.270;2023-07-09T06:03:20;5.32;;;4.18;;
15536;SDS011;7870;52.448;13.270;2023-07-09T06:05:48;6.57;;;3.78;;
15536;SDS011;7870;52.448;13.270;2023-07-09T06:08:16;5.97;;;3.95;;
15536;SDS011;7870;52.448;13.270;2023-07-09T06:11:02;7.13;;;3.45;;
15536;SDS011;7870;52.448;13.270;2023-07-09T06:13:30;7.50;;;3.58;;
15536;SDS011;7870;52.448;13.270;2023-07-09T06:15:59;5.17;;;3.33;;
15536;SDS011;7870;52.448;13.270;2023-07-09T06:18:27;6.40;;;3.15;;
15536;SDS011;7870;52.448;13.270;2023-07-09T06:20:58;7.70;;;3.55;;
15536;SDS011;7870;52.448;13.270;2023-07-09T06:23:25;5.28;;;3.22;;
15536;SDS011;7870;52.448;13.270;2023-07-09T06:25:51;5.30;;;3.20;;
15536;SDS011;7870;52.448;13.270;2023-07-09T06:28:21;5.80;;;3.22;;
15536;SDS011;7870;52.448;13.270;2023-07-09T06:30:47;6.20;;;3.20;;
15536;SDS011;7870;52.448;13.270;2023-07-09T06:33:15;6.15;;;2.70;;
15536;SDS011;7870;52.448;13.270;2023-07-09T06:35:52;7.70;;;3.33;;
15536;SDS011;7870;52.448;13.270;2023-07-09T06:38:19;5.82;;;3.20;;
15536;SDS011;7870;52.448;13.270;2023-07-09T06:40:46;6.70;;;3.08;;
15536;SDS011;7870;52.448;13.270;2023-07-09T06:43:13;4.97;;;2.97;;
15536;SDS011;7870;52.448;13.270;2023-07-09T06:45:51;5.30;;;3.03;;
15536;SDS011;7870;52.448;13.270;2023-07-09T06:48:18;8.48;;;3.60;;
15536;SDS011;7870;52.448;13.270;2023-07-09T06:50:45;4.28;;;3.20;;
15536;SDS011;7870;52.448;13.270;2023-07-09T06:53:11;7.28;;;3.10;;
15536;SDS011;7870;52.448;13.270;2023-07-09T06:55:38;4.65;;;3.45;;
15536;SDS011;7870;52.448;13.270;2023-07-09T06:58:04;4.43;;;2.88;;
15536;SDS011;7870;52.448;13.270;2023-07-09T07:00:31;6.50;;;3.08;;
15536;SDS011;7870;52.448;13.270;2023-07-09T07:02:57;7.05;;;3.22;;
15536;SDS011;7870;52.448;13.270;2023-07-09T07:05:24;8.18;;;3.42;;
15536;SDS011;7870;52.448;13.270;2023-07-09T07:07:51;4.65;;;3.22;;
15536;SDS011;7870;52.448;13.270;2023-07-09T07:10:17;5.10;;;3.30;;
15536;SDS011;7870;52.448;13.270;2023-07-09T07:12:45;5.38;;;3.38;;
15536;SDS011;7870;52.448;13.270;2023-07-09T07:15:12;5.25;;;3.38;;
15536;SDS011;7870;52.448;13.270;2023-07-09T07:17:39;7.38;;;3.70;;
15536;SDS011;7870;52.448;13.270;2023-07-09T07:20:06;4.88;;;3.08;;
15536;SDS011;7870;52.448;13.270;2023-07-09T07:22:33;4.25;;;3.08;;
15536;SDS011;7870;52.448;13.270;2023-07-09T07:24:59;6.93;;;2.90;;
15536;SDS011;7870;52.448;13.270;2023-07-09T07:27:26;4.97;;;3.28;;
15536;SDS011;7870;52.448;13.270;2023-07-09T07:29:52;6.45;;;3.42;;
15536;SDS011;7870;52.448;13.270;2023-07-09T07:32:20;5.13;;;3.20;;
15536;SDS011;7870;52.448;13.270;2023-07-09T07:34:47;5.65;;;3.40;;
15536;SDS011;7870;52.448;13.270;2023-07-09T07:37:15;5.35;;;3.20;;
15536;SDS011;7870;52.448;13.270;2023-07-09T07:39:41;5.22;;;3.53;;
15536;SDS011;7870;52.448;13.270;2023-07-09T07:42:08;4.75;;;3.45;;
15536;SDS011;7870;52.448;13.270;2023-07-09T07:44:34;6.40;;;3.72;;
15536;SDS011;7870;52.448;13.270;2023-07-09T07:47:02;7.25;;;3.67;;
15536;SDS011;7870;52.448;13.270;2023-07-09T07:49:29;6.35;;;3.65;;
15536;SDS011;7870;52.448;13.270;2023-07-09T07:51:56;5.30;;;3.25;;
15536;SDS011;7870;52.448;13.270;2023-07-09T07:54:22;3.92;;;2.85;;
15536;SDS011;7870;52.448;13.270;2023-07-09T07:56:48;6.55;;;3.63;;
15536;SDS011;7870;52.448;13.270;2023-07-09T07:59:16;5.00;;;3.10;;
15536;SDS011;7870;52.448;13.270;2023-07-09T08:01:43;6.55;;;3.15;;
15536;SDS011;7870;52.448;13.270;2023-07-09T08:04:10;5.57;;;3.15;;
15536;SDS011;7870;52.448;13.270;2023-07-09T08:06:36;4.75;;;3.17;;
15536;SDS011;7870;52.448;13.270;2023-07-09T08:09:02;5.97;;;3.55;;
15536;SDS011;7870;52.448;13.270;2023-07-09T08:11:29;5.97;;;3.33;;
15536;SDS011;7870;52.448;13.270;2023-07-09T08:13:58;7.68;;;3.42;;
15536;SDS011;7870;52.448;13.270;2023-07-09T08:16:25;6.28;;;4.25;;
15536;SDS011;7870;52.448;13.270;2023-07-09T08:18:51;5.05;;;3.63;;
15536;SDS011;7870;52.448;13.270;2023-07-09T08:21:18;5.03;;;3.17;;
15536;SDS011;7870;52.448;13.270;2023-07-09T08:23:45;5.55;;;3.80;;
15536;SDS011;7870;52.448;13.270;2023-07-09T08:26:12;5.60;;;3.30;;
15536;SDS011;7870;52.448;13.270;2023-07-09T08:28:38;6.32;;;3.42;;
15536;SDS011;7870;52.448;13.270;2023-07-09T08:31:05;6.55;;;3.55;;
15536;SDS011;7870;52.448;13.270;2023-07-09T08:33:32;7.35;;;3.53;;
15536;SDS011;7870;52.448;13.270;2023-07-09T08:36:00;5.53;;;3.80;;
15536;SDS011;7870;52.448;13.270;2023-07-09T08:38:26;4.78;;;3.65;;
15536;SDS011;7870;52.448;13.270;2023-07-09T08:43:39;4.57;;;3.28;;
15536;SDS011;7870;52.448;13.270;2023-07-09T08:52:14;4.80;;;3.25;;
15536;SDS011;7870;52.448;13.270;2023-07-09T08:54:44;7.07;;;3.67;;
15536;SDS011;7870;52.448;13.270;2023-07-09T08:57:15;7.63;;;3.33;;
15536;SDS011;7870;52.448;13.270;2023-07-09T08:59:44;4.40;;;3.00;;
15536;SDS011;7870;52.448;13.270;2023-07-09T09:02:14;5.50;;;3.28;;
15536;SDS011;7870;52.448;13.270;2023-07-09T09:04:45;6.30;;;3.33;;
15536;SDS011;7870;52.448;13.270;2023-07-09T09:07:17;6.53;;;3.00;;
15536;SDS011;7870;52.448;13.270;2023-07-09T09:09:54;5.65;;;3.17;;
15536;SDS011;7870;52.448;13.270;2023-07-09T09:12:24;4.70;;;2.80;;
15536;SDS011;7870;52.448;13.270;2023-07-09T09:14:53;5.95;;;3.55;;
15536;SDS011;7870;52.448;13.270;2023-07-09T09:17:23;5.57;;;3.17;;
15536;SDS011;7870;52.448;13.270;2023-07-09T09:22:24;7.80;;;3.45;;
15536;SDS011;7870;52.448;13.270;2023-07-09T09:27:23;4.75;;;3.10;;
15536;SDS011;7870;52.448;13.270;2023-07-09T09:29:50;6.03;;;3.60;;
15536;SDS011;7870;52.448;13.270;2023-07-09T09:32:25;4.40;;;2.70;;
15536;SDS011;7870;52.448;13.270;2023-07-09T09:34:54;5.50;;;3.17;;
15536;SDS011;7870;52.448;13.270;2023-07-09T09:37:28;4.38;;;2.83;;
15536;SDS011;7870;52.448;13.270;2023-07-09T09:39:58;5.47;;;2.97;;
15536;SDS011;7870;52.448;13.270;2023-07-09T09:42:43;5.57;;;3.08;;
15536;SDS011;7870;52.448;13.270;2023-07-09T09:45:16;4.00;;;3.05;;
15536;SDS011;7870;52.448;13.270;2023-07-09T09:47:46;5.15;;;3.30;;
15536;SDS011;7870;52.448;13.270;2023-07-09T09:50:21;4.13;;;2.90;;
15536;SDS011;7870;52.448;13.270;2023-07-09T09:52:48;4.85;;;3.05;;
15536;SDS011;7870;52.448;13.270;2023-07-09T09:55:19;4.93;;;3.10;;
15536;SDS011;7870;52.448;13.270;2023-07-09T09:57:47;5.38;;;3.22;;
15536;SDS011;7870;52.448;13.270;2023-07-09T10:00:14;4.65;;;3.13;;
15536;SDS011;7870;52.448;13.270;2023-07-09T10:02:56;4.75;;;3.17;;
15536;SDS011;7870;52.448;13.270;2023-07-09T10:05:25;5.57;;;2.80;;
15536;SDS011;7870;52.448;13.270;2023-07-09T10:08:08;4.32;;;3.17;;
15536;SDS011;7870;52.448;13.270;2023-07-09T10:10:35;6.35;;;3.03;;
15536;SDS011;7870;52.448;13.270;2023-07-09T10:13:20;4.50;;;3.05;;
15536;SDS011;7870;52.448;13.270;2023-07-09T10:21:12;4.72;;;2.65;;
15536;SDS011;7870;52.448;13.270;2023-07-09T10:26:14;5.15;;;2.80;;
15536;SDS011;7870;52.448;13.270;2023-07-09T10:31:29;5.13;;;3.17;;
15536;SDS011;7870;52.448;13.270;2023-07-09T10:36:36;5.55;;;3.17;;
15536;SDS011;7870;52.448;13.270;2023-07-09T10:39:10;4.50;;;2.97;;
15536;SDS011;7870;52.448;13.270;2023-07-09T10:41:39;4.10;;;2.70;;
15536;SDS011;7870;52.448;13.270;2023-07-09T10:44:24;4.93;;;3.00;;
15536;SDS011;7870;52.448;13.270;2023-07-09T10:46:53;5.25;;;3.17;;
15536;SDS011;7870;52.448;13.270;2023-07-09T10:49:22;4.25;;;2.67;;
15536;SDS011;7870;52.448;13.270;2023-07-09T10:51:52;4.35;;;2.90;;
15536;SDS011;7870;52.448;13.270;2023-07-09T10:56:50;4.87;;;3.10;;
15536;SDS011;7870;52.448;13.270;2023-07-09T10:59:32;4.00;;;2.47;;
15536;SDS011;7870;52.448;13.270;2023-07-09T11:02:06;6.72;;;2.92;;
15536;SDS011;7870;52.448;13.270;2023-07-09T11:05:01;10.02;;;3.13;;
15536;SDS011;7870;52.448;13.270;2023-07-09T11:07:33;6.90;;;2.97;;
15536;SDS011;7870;52.448;13.270;2023-07-09T11:10:04;4.78;;;2.95;;
15536;SDS011;7870;52.448;13.270;2023-07-09T11:12:34;4.30;;;2.90;;
15536;SDS011;7870;52.448;13.270;2023-07-09T11:15:03;6.47;;;2.83;;
15536;SDS011;7870;52.448;13.270;2023-07-09T11:17:30;5.55;;;3.00;;
15536;SDS011;7870;52.448;13.270;2023-07-09T11:20:05;4.30;;;2.83;;
15536;SDS011;7870;52.448;13.270;2023-07-09T11:22:36;6.80;;;3.00;;
15536;SDS011;7870;52.448;13.270;2023-07-09T11:25:11;3.55;;;2.35;;
15536;SDS011;7870;52.448;13.270;2023-07-09T11:28:14;6.22;;;2.75;;
15536;SDS011;7870;52.448;13.270;2023-07-09T11:30:48;4.10;;;3.03;;
15536;SDS011;7870;52.448;13.270;2023-07-09T11:33:16;5.93;;;3.00;;
15536;SDS011;7870;52.448;13.270;2023-07-09T11:35:51;3.80;;;2.80;;
15536;SDS011;7870;52.448;13.270;2023-07-09T11:38:19;4.22;;;2.72;;
15536;SDS011;7870;52.448;13.270;2023-07-09T11:40:46;4.47;;;2.60;;
15536;SDS011;7870;52.448;13.270;2023-07-09T11:43:31;4.25;;;3.03;;
15536;SDS011;7870;52.448;13.270;2023-07-09T11:46:03;4.00;;;2.88;;
15536;SDS011;7870;52.448;13.270;2023-07-09T11:48:32;4.10;;;2.50;;
15536;SDS011;7870;52.448;13.270;2023-07-09T11:51:03;4.72;;;2.95;;
15536;SDS011;7870;52.448;13.270;2023-07-09T11:53:36;4.40;;;2.80;;
15536;SDS011;7870;52.448;13.270;2023-07-09T11:56:04;4.28;;;3.03;;
15536;SDS011;7870;52.448;13.270;2023-07-09T11:58:34;6.38;;;3.13;;
15536;SDS011;7870;52.448;13.270;2023-07-09T12:01:01;5.75;;;3.10;;
15536;SDS011;7870;52.448;13.270;2023-07-09T12:03:32;6.05;;;2.90;;
15536;SDS011;7870;52.448;13.270;2023-07-09T12:06:00;4.80;;;3.40;;
15536;SDS011;7870;52.448;13.270;2023-07-09T12:08:28;5.70;;;2.80;;
15536;SDS011;7870;52.448;13.270;2023-07-09T12:10:58;6.47;;;3.20;;
15536;SDS011;7870;52.448;13.270;2023-07-09T12:13:25;4.18;;;3.13;;
15536;SDS011;7870;52.448;13.270;2023-07-09T12:15:51;5.15;;;2.90;;
15536;SDS011;7870;52.448;13.270;2023-07-09T12:18:18;6.60;;;3.47;;
15536;SDS011;7870;52.448;13.270;2023-07-09T12:20:47;5.93;;;3.50;;
15536;SDS011;7870;52.448;13.270;2023-07-09T12:23:17;6.00;;;3.50;;
15536;SDS011;7870;52.448;13.270;2023-07-09T12:25:49;4.05;;;2.92;;
15536;SDS011;7870;52.448;13.270;2023-07-09T12:28:15;5.65;;;2.97;;
15536;SDS011;7870;52.448;13.270;2023-07-09T12:30:49;5.30;;;3.33;;
15536;SDS011;7870;52.448;13.270;2023-07-09T12:33:17;6.38;;;3.20;;
15536;SDS011;7870;52.448;13.270;2023-07-09T12:35:45;4.38;;;3.20;;
15536;SDS011;7870;52.448;13.270;2023-07-09T12:38:18;6.15;;;3.30;;
15536;SDS011;7870;52.448;13.270;2023-07-09T12:40:46;9.95;;;3.60;;
15536;SDS011;7870;52.448;13.270;2023-07-09T12:43:23;5.47;;;3.35;;
15536;SDS011;7870;52.448;13.270;2023-07-09T12:45:51;4.28;;;3.40;;
15536;SDS011;7870;52.448;13.270;2023-07-09T12:48:21;6.43;;;3.28;;
15536;SDS011;7870;52.448;13.270;2023-07-09T12:51:02;4.57;;;3.10;;
15536;SDS011;7870;52.448;13.270;2023-07-09T12:53:32;5.82;;;3.55;;
15536;SDS011;7870;52.448;13.270;2023-07-09T12:56:00;5.20;;;3.22;;
15536;SDS011;7870;52.448;13.270;2023-07-09T12:58:28;5.43;;;2.90;;
15536;SDS011;7870;52.448;13.270;2023-07-09T13:00:56;4.32;;;3.30;;
15536;SDS011;7870;52.448;13.270;2023-07-09T13:03:28;4.97;;;3.05;;
15536;SDS011;7870;52.448;13.270;2023-07-09T13:05:58;5.03;;;3.30;;
15536;SDS011;7870;52.448;13.270;2023-07-09T13:08:26;5.53;;;3.35;;
15536;SDS011;7870;52.448;13.270;2023-07-09T13:10:53;5.70;;;3.30;;
15536;SDS011;7870;52.448;13.270;2023-07-09T13:13:20;4.47;;;3.20;;
15536;SDS011;7870;52.448;13.270;2023-07-09T13:15:51;4.82;;;3.47;;
15536;SDS011;7870;52.448;13.270;2023-07-09T13:18:23;8.02;;;3.60;;
15536;SDS011;7870;52.448;13.270;2023-07-09T13:20:51;4.38;;;3.40;;
15536;SDS011;7870;52.448;13.270;2023-07-09T13:23:19;4.50;;;3.30;;
15536;SDS011;7870;52.448;13.270;2023-07-09T13:25:46;3.67;;;2.83;;
15536;SDS011;7870;52.448;13.270;2023-07-09T13:28:21;5.32;;;3.35;;
15536;SDS011;7870;52.448;13.270;2023-07-09T13:30:50;4.93;;;3.20;;
15536;SDS011;7870;52.448;13.270;2023-07-09T13:33:17;4.53;;;3.17;;
15536;SDS011;7870;52.448;13.270;2023-07-09T13:35:44;4.55;;;3.28;;
15536;SDS011;7870;52.448;13.270;2023-07-09T13:38:14;4.85;;;3.33;;
15536;SDS011;7870;52.448;13.270;2023-07-09T13:40:42;6.03;;;3.50;;
15536;SDS011;7870;52.448;13.270;2023-07-09T13:43:13;4.32;;;3.05;;
15536;SDS011;7870;52.448;13.270;2023-07-09T13:48:13;5.70;;;3.72;;
15536;SDS011;7870;52.448;13.270;2023-07-09T13:50:41;5.60;;;3.42;;
15536;SDS011;7870;52.448;13.270;2023-07-09T13:53:16;7.05;;;3.55;;
15536;SDS011;7870;52.448;13.270;2023-07-09T13:55:45;4.70;;;3.83;;
15536;SDS011;7870;52.448;13.270;2023-07-09T13:58:13;4.65;;;3.40;;
15536;SDS011;7870;52.448;13.270;2023-07-09T14:00:44;4.57;;;3.40;;
15536;SDS011;7870;52.448;13.270;2023-07-09T14:03:22;3.72;;;2.85;;
15536;SDS011;7870;52.448;13.270;2023-07-09T14:05:49;5.85;;;3.70;;
15536;SDS011;7870;52.448;13.270;2023-07-09T14:08:16;5.15;;;3.70;;
15536;SDS011;7870;52.448;13.270;2023-07-09T14:10:43;6.13;;;3.75;;
15536;SDS011;7870;52.448;13.270;2023-07-09T14:13:17;7.80;;;3.45;;
15536;SDS011;7870;52.448;13.270;2023-07-09T14:15:44;6.05;;;3.63;;
15536;SDS011;7870;52.448;13.270;2023-07-09T14:18:20;4.88;;;3.20;;
15536;SDS011;7870;52.448;13.270;2023-07-09T14:20:47;4.45;;;3.35;;
15536;SDS011;7870;52.448;13.270;2023-07-09T14:23:15;7.57;;;3.58;;
15536;SDS011;7870;52.448;13.270;2023-07-09T14:25:43;7.97;;;3.30;;
15536;SDS011;7870;52.448;13.270;2023-07-09T14:28:10;5.55;;;3.38;;
15536;SDS011;7870;52.448;13.270;2023-07-09T14:30:37;3.97;;;3.28;;
15536;SDS011;7870;52.448;13.270;2023-07-09T14:33:04;6.53;;;3.60;;
15536;SDS011;7870;52.448;13.270;2023-07-09T14:35:31;3.95;;;2.80;;
15536;SDS011;7870;52.448;13.270;2023-07-09T14:37:57;8.25;;;4.32;;
15536;SDS011;7870;52.448;13.270;2023-07-09T14:40:25;5.53;;;3.40;;
15536;SDS011;7870;52.448;13.270;2023-07-09T14:42:52;6.93;;;3.90;;
15536;SDS011;7870;52.448;13.270;2023-07-09T14:45:19;5.60;;;3.42;;
15536;SDS011;7870;52.448;13.270;2023-07-09T14:47:46;6.55;;;3.70;;
15536;SDS011;7870;52.448;13.270;2023-07-09T14:50:13;5.88;;;3.88;;
15536;SDS011;7870;52.448;13.270;2023-07-09T14:52:40;5.05;;;3.95;;
15536;SDS011;7870;52.448;13.270;2023-07-09T14:55:14;7.05;;;3.75;;
15536;SDS011;7870;52.448;13.270;2023-07-09T14:57:40;6.50;;;3.63;;
15536;SDS011;7870;52.448;13.270;2023-07-09T15:00:11;4.82;;;3.65;;
15536;SDS011;7870;52.448;13.270;2023-07-09T15:02:39;5.97;;;4.03;;
15536;SDS011;7870;52.448;13.270;2023-07-09T15:05:11;5.95;;;3.65;;
15536;SDS011;7870;52.448;13.270;2023-07-09T15:07:37;4.57;;;3.58;;
15536;SDS011;7870;52.448;13.270;2023-07-09T15:10:04;4.65;;;3.28;;
15536;SDS011;7870;52.448;13.270;2023-07-09T15:12:34;5.28;;;3.58;;
15536;SDS011;7870;52.448;13.270;2023-07-09T15:15:03;5.25;;;3.67;;
15536;SDS011;7870;52.448;13.270;2023-07-09T15:17:32;5.28;;;3.70;;
15536;SDS011;7870;52.448;13.270;2023-07-09T15:19:58;5.95;;;3.45;;
15536;SDS011;7870;52.448;13.270;2023-07-09T15:22:27;7.60;;;4.00;;
15536;SDS011;7870;52.448;13.270;2023-07-09T15:24:55;4.70;;;3.92;;
15536;SDS011;7870;52.448;13.270;2023-07-09T15:27:21;5.97;;;3.40;;
15536;SDS011;7870;52.448;13.270;2023-07-09T15:29:47;4.88;;;3.42;;